Terminal Aerodrome Forecast
Issued by NWS

Home | Current Version | Previous Version | Text Only | Print | Product List | Glossary On
Versions: 1 2 3 4 5 6 7 8 9 10 11 12 13 14 15 16 17 18 19 20 21 22 23 24 25 26 27 28 29 30
846
FTUS41 KBOX 250542
TAFACK
TAF
KACK 250542Z 2506/2606 06009KT P6SM OVC040
     FM250900 07013G21KT P6SM OVC040
     FM251100 09015G22KT P6SM -RA OVC030
     FM251300 09014G25KT 4SM -RA BR OVC015
     FM251500 10017G28KT 2SM -RA BR OVC007
     FM252100 11018KT 2SM BR OVC003
     FM252300 14013KT 2SM BR OVC003
     FM260200 26010KT 3SM BR OVC003
     FM260400 28010KT 4SM BR OVC015=

USA.gov is the U.S. government's official web portal to all federal, state and local government web resources and services.